Time;durP1;ratioP1;P1;durP2;ratioP2;P2;SDS_P1;SDS_P2;PMS_P1;PMS_P2;Temp;Humidity;BMP_temperature;BMP_pressure;BME280_temperature;BME280_humidity;BME280_pressure;Samples;Min_cycle;Max_cycle;Signal;HPM_P1;HPM_P2
2023/12/18 00:00:09;;;;;;;25.60;14.70;;;;;;;3.23;100.00;102383.42;109613;1242;73585;-77
2023/12/18 00:02:58;;;;;;;25.40;13.90;;;;;;;3.25;100.00;102379.59;109441;1244;63441;-76
2023/12/18 00:05:27;;;;;;;31.00;14.90;;;;;;;3.23;100.00;102380.13;109626;1243;61404;-76
2023/12/18 00:07:56;;;;;;;22.70;14.30;;;;;;;3.23;100.00;102372.39;109340;1242;73953;-78
2023/12/18 00:10:25;;;;;;;23.30;14.50;;;;;;;3.19;100.00;102374.35;109634;1243;61955;-77
2023/12/18 00:12:54;;;;;;;25.20;13.20;;;;;;;3.19;100.00;102375.90;109499;1244;59801;-76
2023/12/18 00:15:23;;;;;;;31.20;16.60;;;;;;;3.15;100.00;102372.67;109594;1244;72936;-76
2023/12/18 00:17:54;;;;;;;36.30;18.30;;;;;;;3.09;100.00;102377.94;109573;1244;62340;-76
2023/12/18 00:20:23;;;;;;;37.00;18.70;;;;;;;3.06;100.00;102379.02;109648;1243;57721;-76
2023/12/18 00:22:52;;;;;;;33.90;17.80;;;;;;;3.05;100.00;102378.33;109608;1244;62844;-77
2023/12/18 00:25:21;;;;;;;28.60;15.60;;;;;;;3.02;100.00;102376.16;109574;1244;71249;-75
2023/12/18 00:27:50;;;;;;;27.70;15.30;;;;;;;2.95;100.00;102380.04;109597;1243;70886;-76
2023/12/18 00:30:19;;;;;;;21.20;12.40;;;;;;;2.88;100.00;102382.18;109606;1243;75070;-77
2023/12/18 00:32:48;;;;;;;20.90;13.20;;;;;;;2.91;100.00;102378.54;109570;1244;61683;-77
2023/12/18 00:35:17;;;;;;;20.10;11.60;;;;;;;2.84;100.00;102373.13;109632;1244;57255;-77
2023/12/18 00:37:46;;;;;;;17.70;10.40;;;;;;;2.78;100.00;102365.12;109634;1244;62811;-77
2023/12/18 00:40:15;;;;;;;17.30;10.90;;;;;;;2.77;100.00;102371.16;109495;1243;71121;-77
2023/12/18 00:42:43;;;;;;;15.60;9.60;;;;;;;2.67;100.00;102374.04;109599;1243;61183;-76
2023/12/18 00:45:12;;;;;;;18.40;10.80;;;;;;;2.61;100.00;102368.09;109491;1244;63047;-77
2023/12/18 00:47:41;;;;;;;16.50;11.00;;;;;;;2.62;100.00;102359.48;109466;1244;60710;-77
2023/12/18 00:50:10;;;;;;;16.90;10.50;;;;;;;2.58;100.00;102359.70;109449;1244;57307;-77
2023/12/18 00:52:39;;;;;;;18.30;11.30;;;;;;;2.60;100.00;102348.50;109373;1245;62832;-77
2023/12/18 00:55:08;;;;;;;15.60;10.10;;;;;;;2.61;100.00;102339.73;109453;1244;61423;-77
2023/12/18 00:57:37;;;;;;;19.20;10.70;;;;;;;2.61;100.00;102328.19;109440;1242;70359;-77
2023/12/18 01:00:08;;;;;;;15.10;10.20;;;;;;;2.63;100.00;102328.16;109327;1243;63796;-77
2023/12/18 01:02:37;;;;;;;17.20;10.00;;;;;;;2.55;100.00;102324.66;109467;1244;57124;-77
2023/12/18 01:05:06;;;;;;;16.80;10.40;;;;;;;2.56;100.00;102318.95;109508;1244;58636;-78
2023/12/18 01:07:35;;;;;;;16.80;10.20;;;;;;;2.53;100.00;102317.80;109624;1243;63324;-78
2023/12/18 01:10:08;;;;;;;17.50;10.70;;;;;;;2.64;100.00;102318.52;109612;1244;61557;-77
2023/12/18 01:12:37;;;;;;;15.50;9.50;;;;;;;2.61;100.00;102317.17;109613;1242;70262;-77
2023/12/18 01:15:06;;;;;;;16.20;9.40;;;;;;;2.65;100.00;102313.00;109499;1243;73939;-77
2023/12/18 01:17:35;;;;;;;15.00;9.80;;;;;;;2.57;100.00;102303.13;109359;1246;61621;-78
2023/12/18 01:20:06;;;;;;;13.90;9.90;;;;;;;2.57;100.00;102300.02;109427;1245;57223;-76
2023/12/18 01:22:35;;;;;;;15.40;9.40;;;;;;;2.62;100.00;102293.95;109258;1248;63050;-76
2023/12/18 01:25:05;;;;;;;15.90;9.50;;;;;;;2.61;100.00;102291.55;109466;1244;61651;-76
2023/12/18 01:27:33;;;;;;;15.20;9.80;;;;;;;2.61;100.00;102288.11;109448;1243;70341;-76
2023/12/18 01:30:03;;;;;;;16.20;9.10;;;;;;;2.58;100.00;102284.03;109331;1245;64212;-77
2023/12/18 01:32:33;;;;;;;15.40;9.40;;;;;;;2.53;100.00;102283.41;109452;1244;62191;-76
2023/12/18 01:35:02;;;;;;;14.40;8.80;;;;;;;2.59;100.00;102277.47;109436;1243;60576;-76
2023/12/18 01:37:30;;;;;;;16.40;9.20;;;;;;;2.63;100.00;102275.02;109285;1243;73961;-76
2023/12/18 01:40:02;;;;;;;18.60;9.70;;;;;;;2.66;100.00;102267.91;109299;1245;69946;-76
2023/12/18 01:42:31;;;;;;;14.40;9.20;;;;;;;2.74;100.00;102267.97;109447;1244;59815;-77
2023/12/18 01:45:00;;;;;;;20.50;10.30;;;;;;;2.82;100.00;102267.33;109398;1244;72831;-76
2023/12/18 01:47:29;;;;;;;15.80;9.80;;;;;;;2.85;100.00;102261.60;109388;1244;61988;-76
2023/12/18 01:49:58;;;;;;;13.40;9.30;;;;;;;2.90;100.00;102260.33;109332;1244;59893;-76
2023/12/18 01:52:27;;;;;;;15.60;8.70;;;;;;;2.87;100.00;102255.38;109413;1243;73530;-76
2023/12/18 01:54:56;;;;;;;13.90;8.80;;;;;;;2.88;100.00;102251.41;109293;1243;72463;-76
2023/12/18 01:57:25;;;;;;;13.70;8.50;;;;;;;2.91;100.00;102250.49;109405;1244;60205;-76
2023/12/18 01:59:55;;;;;;;14.70;8.70;;;;;;;2.96;100.00;102244.58;109419;1242;63345;-76
2023/12/18 02:02:25;;;;;;;13.30;8.80;;;;;;;2.96;100.00;102244.06;109247;1247;57747;-73
2023/12/18 02:04:54;;;;;;;16.50;9.20;;;;;;;2.94;100.00;102241.16;109262;1244;60373;-73
2023/12/18 02:07:25;;;;;;;13.90;9.70;;;;;;;2.95;100.00;102243.36;109464;1243;73925;-73
2023/12/18 02:09:57;;;;;;;15.70;9.70;;;;;;;2.97;100.00;102236.13;109354;1244;61811;-73
2023/12/18 02:12:26;;;;;;;14.90;9.30;;;;;;;2.95;100.00;102229.61;109432;1243;70358;-75
2023/12/18 02:14:56;;;;;;;13.70;9.10;;;;;;;2.93;100.00;102227.58;109340;1243;73465;-76
2023/12/18 02:17:25;;;;;;;15.00;9.70;;;;;;;2.94;100.00;102220.50;109344;1243;62736;-75
2023/12/18 02:20:08;;;;;;;16.30;9.20;;;;;;;2.92;100.00;102219.85;109458;1244;61390;-74
2023/12/18 02:22:52;;;;;;;14.20;8.70;;;;;;;2.89;100.00;102216.27;109473;1243;62759;-77
2023/12/18 02:25:21;;;;;;;16.30;9.70;;;;;;;2.85;100.00;102214.80;109525;1242;71423;-74
2023/12/18 02:27:50;;;;;;;16.00;9.00;;;;;;;2.85;100.00;102202.23;109471;1243;70566;-74
2023/12/18 02:30:22;;;;;;;14.40;9.00;;;;;;;2.81;100.00;102212.62;109480;1244;73666;-75
2023/12/18 02:32:51;;;;;;;16.10;8.80;;;;;;;2.84;100.00;102211.21;109513;1245;57627;-73
2023/12/18 02:35:20;;;;;;;17.20;9.80;;;;;;;2.85;100.00;102209.30;109551;1245;57245;-74
2023/12/18 02:37:49;;;;;;;16.80;10.10;;;;;;;2.86;100.00;102204.63;109642;1244;61993;-73
2023/12/18 02:40:18;;;;;;;18.60;11.50;;;;;;;2.87;100.00;102210.98;109645;1244;72176;-74
2023/12/18 02:42:47;;;;;;;19.60;11.50;;;;;;;2.84;100.00;102211.54;109456;1243;70612;-74
2023/12/18 02:45:16;;;;;;;18.00;11.70;;;;;;;2.86;100.00;102209.27;109617;1243;74135;-74
2023/12/18 02:47:44;;;;;;;20.20;12.30;;;;;;;2.89;100.00;102206.30;109504;1245;61655;-74
2023/12/18 02:50:15;;;;;;;18.50;11.80;;;;;;;2.89;100.00;102204.07;109621;1242;58061;-74
2023/12/18 02:52:44;;;;;;;18.20;11.80;;;;;;;2.92;100.00;102202.98;109443;1244;72360;-74
2023/12/18 02:55:13;;;;;;;18.20;11.00;;;;;;;2.98;100.00;102206.67;109601;1243;72538;-74
2023/12/18 02:57:43;;;;;;;15.90;10.00;;;;;;;2.96;100.00;102197.74;109621;1244;70772;-75
2023/12/18 03:00:12;;;;;;;15.60;9.50;;;;;;;2.97;100.00;102201.52;109596;1245;63567;-75
2023/12/18 03:02:42;;;;;;;18.00;9.60;;;;;;;2.95;100.00;102197.95;109609;1244;57664;-75
2023/12/18 03:05:11;;;;;;;16.20;10.20;;;;;;;2.88;100.00;102197.87;109603;1244;57175;-76
2023/12/18 03:07:40;;;;;;;16.30;10.10;;;;;;;2.88;100.00;102189.10;109637;1244;62044;-77
2023/12/18 03:10:10;;;;;;;15.60;9.50;;;;;;;2.89;100.00;102187.20;109523;1243;70980;-78
2023/12/18 03:12:39;;;;;;;15.20;8.80;;;;;;;2.88;100.00;102182.05;109558;1244;60133;-78
2023/12/18 03:15:11;;;;;;;14.70;8.90;;;;;;;2.89;100.00;102179.64;109659;1242;72444;-77
2023/12/18 03:17:40;;;;;;;14.50;9.20;;;;;;;2.91;100.00;102180.96;109506;1245;62370;-77
2023/12/18 03:20:09;;;;;;;14.80;8.90;;;;;;;2.88;100.00;102179.80;109654;1243;59307;-78
2023/12/18 03:22:39;;;;;;;15.50;8.90;;;;;;;2.92;100.00;102176.30;109552;1244;64457;-77
2023/12/18 03:25:12;;;;;;;13.00;8.80;;;;;;;2.93;100.00;102172.16;109604;1244;62242;-78
2023/12/18 03:27:43;;;;;;;16.40;9.20;;;;;;;2.98;100.00;102171.04;109361;1244;59970;-76
2023/12/18 03:30:12;;;;;;;16.40;10.40;;;;;;;2.98;100.00;102169.33;109436;1244;74144;-76
2023/12/18 03:32:41;;;;;;;17.40;9.20;;;;;;;2.95;100.00;102167.49;109351;1245;62526;-77
2023/12/18 03:35:11;;;;;;;15.40;9.70;;;;;;;2.95;100.00;102164.55;109461;1242;57634;-77
2023/12/18 03:37:40;;;;;;;16.00;9.80;;;;;;;2.99;100.00;102161.39;109487;1244;62991;-77
2023/12/18 03:40:11;;;;;;;12.90;9.10;;;;;;;2.99;100.00;102159.16;109448;1244;72160;-77
2023/12/18 03:42:41;;;;;;;15.70;9.40;;;;;;;2.99;100.00;102157.77;109510;1243;70708;-76
2023/12/18 03:45:13;;;;;;;16.20;10.00;;;;;;;2.91;100.00;102159.62;109564;1244;75003;-76
2023/12/18 03:47:42;;;;;;;14.40;9.70;;;;;;;2.96;100.00;102160.06;109488;1244;63011;-75
2023/12/18 03:50:14;;;;;;;15.70;10.00;;;;;;;3.01;100.00;102152.92;109606;1243;60158;-77
2023/12/18 03:52:42;;;;;;;16.90;9.80;;;;;;;3.02;100.00;102153.95;109602;1244;72278;-77
2023/12/18 03:55:11;;;;;;;17.70;10.30;;;;;;;3.03;100.00;102144.46;109557;1244;62141;-76
2023/12/18 03:57:40;;;;;;;18.40;11.40;;;;;;;3.03;100.00;102157.54;109457;1243;59795;-76
2023/12/18 04:00:11;;;;;;;14.70;9.90;;;;;;;3.07;100.00;102147.81;109438;1244;73715;-76
2023/12/18 04:02:40;;;;;;;15.20;9.20;;;;;;;3.11;100.00;102133.30;109452;1244;57114;-77
2023/12/18 04:05:09;;;;;;;18.10;10.00;;;;;;;3.15;100.00;102133.55;109352;1244;57434;-75
2023/12/18 04:07:38;;;;;;;13.50;8.80;;;;;;;3.19;100.00;102129.70;109426;1243;73973;-74
2023/12/18 04:10:08;;;;;;;14.00;9.10;;;;;;;3.17;100.00;102126.11;109343;1244;62428;-74
2023/12/18 04:12:40;;;;;;;14.40;8.80;;;;;;;3.17;100.00;102121.30;109250;1244;70424;-76
2023/12/18 04:15:11;;;;;;;14.90;8.10;;;;;;;3.22;100.00;102126.02;109336;1244;63580;-76
2023/12/18 04:17:40;;;;;;;14.70;8.30;;;;;;;3.23;100.00;102135.98;109240;1247;61075;-76
2023/12/18 04:20:10;;;;;;;12.90;7.90;;;;;;;3.24;100.00;102134.24;109348;1244;57737;-76
2023/12/18 04:22:39;;;;;;;14.90;9.40;;;;;;;3.29;100.00;102128.80;109397;1245;72677;-76
2023/12/18 04:25:08;;;;;;;17.10;9.50;;;;;;;3.29;100.00;102125.71;109469;1243;72529;-76
2023/12/18 04:27:37;;;;;;;13.90;8.80;;;;;;;3.33;100.00;102130.61;109473;1243;71293;-75
2023/12/18 04:30:10;;;;;;;14.90;9.40;;;;;;;3.33;100.00;102120.45;109463;1244;74174;-77
2023/12/18 04:32:39;;;;;;;17.00;9.90;;;;;;;3.31;100.00;102113.79;109458;1245;62988;-75
2023/12/18 04:35:08;;;;;;;20.00;11.20;;;;;;;3.35;100.00;102115.27;109379;1244;57752;-78
2023/12/18 04:37:37;;;;;;;23.40;12.30;;;;;;;3.36;100.00;102108.54;109305;1245;62928;-78
2023/12/18 04:40:07;;;;;;;18.90;10.80;;;;;;;3.34;100.00;102113.73;109297;1244;71792;-79
2023/12/18 04:42:35;;;;;;;15.60;9.70;;;;;;;3.35;100.00;102118.17;109191;1246;70813;-78
2023/12/18 04:45:09;;;;;;;19.80;10.50;;;;;;;3.38;100.00;102122.27;109098;1245;62828;-80
2023/12/18 04:47:46;;;;;;;16.20;9.40;;;;;;;3.37;100.00;102114.54;109061;1248;62526;-79
2023/12/18 04:50:15;;;;;;;20.40;10.40;;;;;;;3.37;100.00;102114.20;109106;1244;60681;-78
2023/12/18 04:52:44;;;;;;;51.00;28.00;;;;;;;3.43;100.00;102109.59;109090;1244;73304;-76
2023/12/18 04:55:17;;;;;;;20.30;12.00;;;;;;;3.43;100.00;102104.60;109383;1244;72493;-76
2023/12/18 04:57:45;;;;;;;17.10;10.50;;;;;;;3.42;100.00;102104.95;109407;1243;60952;-77
2023/12/18 05:00:14;;;;;;;17.50;9.00;;;;;;;3.38;100.00;102104.34;109392;1244;63291;-75
2023/12/18 05:02:43;;;;;;;18.20;9.80;;;;;;;3.34;100.00;102102.54;109317;1244;61149;-75
2023/12/18 05:05:12;;;;;;;17.20;10.20;;;;;;;3.29;100.00;102101.95;109319;1244;57685;-78
2023/12/18 05:07:41;;;;;;;20.00;10.00;;;;;;;3.25;100.00;102097.20;109321;1244;62852;-79
2023/12/18 05:10:10;;;;;;;19.70;10.40;;;;;;;3.25;100.00;102090.16;109281;1244;72149;-78
2023/12/18 05:12:39;;;;;;;16.90;10.80;;;;;;;3.25;100.00;102089.11;109298;1244;70678;-82
2023/12/18 05:15:09;;;;;;;19.60;12.10;;;;;;;3.27;100.00;102087.70;109310;1244;63593;-80
2023/12/18 05:17:38;;;;;;;17.80;9.80;;;;;;;3.24;100.00;102083.97;109321;1245;60298;-80
2023/12/18 05:20:09;;;;;;;18.90;10.70;;;;;;;3.21;100.00;102089.19;109515;1244;57680;-81
2023/12/18 05:22:38;;;;;;;17.30;10.60;;;;;;;3.17;100.00;102090.64;109430;1246;72070;-78
2023/12/18 05:25:09;;;;;;;18.40;11.10;;;;;;;3.16;100.00;102097.20;109425;1244;72455;-76
2023/12/18 05:27:38;;;;;;;18.10;10.80;;;;;;;3.14;100.00;102100.69;109540;1244;60338;-75
2023/12/18 05:30:07;;;;;;;17.70;10.00;;;;;;;3.08;100.00;102107.36;109509;1243;63993;-76
2023/12/18 05:32:37;;;;;;;17.20;9.70;;;;;;;2.98;100.00;102107.02;109447;1243;61894;-76
2023/12/18 05:35:07;;;;;;;17.80;9.00;;;;;;;2.97;100.00;102098.44;109483;1244;57186;-76
2023/12/18 05:37:35;;;;;;;15.90;10.80;;;;;;;2.96;100.00;102095.88;109576;1243;73474;-72
2023/12/18 05:40:05;;;;;;;21.00;13.10;;;;;;;2.97;100.00;102096.21;109551;1243;62305;-75
2023/12/18 05:42:34;;;;;;;17.10;9.20;;;;;;;2.95;100.00;102096.23;109625;1243;59027;-77
2023/12/18 05:45:03;;;;;;;18.20;10.70;;;;;;;2.85;100.00;102093.48;109624;1243;73325;-74
2023/12/18 05:47:32;;;;;;;14.70;9.30;;;;;;;2.82;100.00;102095.26;109660;1244;57719;-72
2023/12/18 05:50:01;;;;;;;14.40;8.50;;;;;;;2.82;100.00;102092.00;109555;1243;61117;-70
2023/12/18 05:52:30;;;;;;;15.50;9.10;;;;;;;2.78;100.00;102086.73;109511;1243;63367;-71
2023/12/18 05:54:59;;;;;;;13.90;8.40;;;;;;;2.76;100.00;102078.00;109499;1245;71589;-71
2023/12/18 05:57:28;;;;;;;13.90;8.90;;;;;;;2.78;100.00;102079.52;109290;1245;70804;-71
2023/12/18 05:59:56;;;;;;;13.90;8.60;;;;;;;2.78;100.00;102080.89;109518;1243;74773;-71
2023/12/18 06:02:25;;;;;;;17.50;10.50;;;;;;;2.74;100.00;102082.50;109636;1244;57676;-72
2023/12/18 06:04:54;;;;;;;17.70;9.40;;;;;;;2.76;100.00;102083.33;109631;1243;57141;-72
2023/12/18 06:07:23;;;;;;;20.00;13.40;;;;;;;2.80;100.00;102081.37;109634;1244;72698;-72
2023/12/18 06:09:51;;;;;;;21.70;11.40;;;;;;;2.77;100.00;102077.80;109648;1243;72912;-72
2023/12/18 06:12:23;;;;;;;19.30;11.80;;;;;;;2.79;100.00;102075.88;109636;1243;70781;-72
2023/12/18 06:14:53;;;;;;;12.90;8.90;;;;;;;2.73;100.00;102073.75;109511;1244;74339;-72
2023/12/18 06:17:22;;;;;;;16.90;11.10;;;;;;;2.70;100.00;102069.66;109596;1244;62996;-72
2023/12/18 06:19:50;;;;;;;17.80;10.20;;;;;;;2.69;100.00;102070.90;109682;1243;61323;-72
2023/12/18 06:22:19;;;;;;;16.10;10.50;;;;;;;2.66;100.00;102070.95;109514;1244;73480;-78
2023/12/18 06:24:49;;;;;;;20.70;12.00;;;;;;;2.71;100.00;102070.70;109595;1243;72646;-72
2023/12/18 06:27:17;;;;;;;21.20;13.10;;;;;;;2.78;100.00;102070.23;109699;1244;71121;-72
2023/12/18 06:29:47;;;;;;;19.80;12.00;;;;;;;2.83;100.00;102066.50;109603;1244;73019;-72
2023/12/18 06:32:15;;;;;;;18.40;12.40;;;;;;;2.83;100.00;102065.81;109538;1245;61609;-72
2023/12/18 06:34:58;;;;;;;23.70;14.40;;;;;;;2.80;100.00;102065.01;109545;1244;57686;-72
2023/12/18 06:37:27;;;;;;;27.20;14.50;;;;;;;2.82;100.00;102062.75;109529;1244;62933;-72
2023/12/18 06:39:58;;;;;;;22.40;13.50;;;;;;;2.83;100.00;102065.48;109564;1243;63209;-72
2023/12/18 06:42:27;;;;;;;20.10;13.80;;;;;;;2.84;100.00;102071.50;109542;1243;68263;-72
2023/12/18 06:44:56;;;;;;;28.30;15.80;;;;;;;2.90;100.00;102066.05;109547;1244;62516;-71
2023/12/18 06:47:25;;;;;;;32.30;19.10;;;;;;;2.92;100.00;102069.10;109514;1245;60926;-72
2023/12/18 06:49:53;;;;;;;54.80;27.00;;;;;;;2.99;100.00;102067.77;109560;1243;61640;-72
2023/12/18 06:52:23;;;;;;;48.30;27.20;;;;;;;3.10;100.00;102058.26;109571;1244;73240;-72
2023/12/18 06:54:52;;;;;;;153.40;32.70;;;;;;;3.16;100.00;102053.99;109483;1244;61478;-72
2023/12/18 06:57:21;;;;;;;36.60;21.00;;;;;;;3.19;100.00;102056.52;109587;1244;59007;-72
2023/12/18 06:59:50;;;;;;;56.20;19.70;;;;;;;3.29;100.00;102063.89;109510;1244;72982;-72
2023/12/18 07:02:18;;;;;;;35.00;20.60;;;;;;;3.38;100.00;102069.56;109539;1245;57677;-72
2023/12/18 07:04:47;;;;;;;150.10;36.60;;;;;;;3.49;100.00;102060.55;109556;1245;57728;-72
2023/12/18 07:07:18;;;;;;;131.20;28.20;;;;;;;3.55;100.00;102061.62;109554;1245;62774;-73
2023/12/18 07:09:47;;;;;;;33.50;18.20;;;;;;;3.57;100.00;102061.40;109539;1244;71631;-71
2023/12/18 07:12:15;;;;;;;38.20;22.00;;;;;;;3.70;100.00;102055.61;109520;1244;70808;-71
2023/12/18 07:14:44;;;;;;;28.00;16.90;;;;;;;3.79;100.00;102051.95;109511;1243;63013;-71
2023/12/18 07:17:13;;;;;;;34.90;17.10;;;;;;;3.85;100.00;102043.04;109464;1247;57664;-72
2023/12/18 07:19:42;;;;;;;28.40;13.40;;;;;;;4.07;100.00;102047.52;109582;1244;60995;-71
2023/12/18 07:22:11;;;;;;;26.60;14.60;;;;;;;4.21;100.00;102048.20;109579;1244;73924;-71
2023/12/18 07:24:40;;;;;;;26.40;13.80;;;;;;;4.35;100.00;102049.41;109533;1244;70422;-71
2023/12/18 07:27:08;;;;;;;21.60;12.80;;;;;;;4.51;100.00;102046.92;109555;1243;70110;-72
2023/12/18 07:29:37;;;;;;;22.00;13.70;;;;;;;4.68;100.00;102048.56;109494;1244;63581;-72
2023/12/18 07:32:06;;;;;;;23.70;13.50;;;;;;;4.79;100.00;102049.30;109527;1245;57062;-72
2023/12/18 07:34:35;;;;;;;28.10;15.90;;;;;;;4.89;100.00;102046.79;109441;1244;57671;-72
2023/12/18 07:37:05;;;;;;;28.50;18.10;;;;;;;5.01;100.00;102051.10;109544;1244;62271;-71
2023/12/18 07:39:34;;;;;;;25.50;14.60;;;;;;;5.10;100.00;102052.59;109530;1245;60639;-71
2023/12/18 07:42:03;;;;;;;25.80;16.10;;;;;;;5.25;100.00;102047.67;109450;1245;59943;-73
2023/12/18 07:44:32;;;;;;;33.50;18.50;;;;;;;5.34;100.00;102044.48;109524;1244;62486;-72
2023/12/18 07:47:01;;;;;;;34.40;19.80;;;;;;;5.47;100.00;102051.68;109474;1245;57113;-72
2023/12/18 07:49:30;;;;;;;29.60;17.70;;;;;;;5.71;100.00;102054.92;109486;1244;59257;-72
2023/12/18 07:51:59;;;;;;;36.40;19.80;;;;;;;5.94;100.00;102055.45;109449;1244;65155;-72
2023/12/18 07:54:27;;;;;;;35.40;19.80;;;;;;;6.07;100.00;102050.74;109485;1244;72167;-72
2023/12/18 07:56:56;;;;;;;38.40;20.80;;;;;;;6.28;100.00;102056.08;109513;1244;59418;-72
2023/12/18 07:59:25;;;;;;;30.70;17.90;;;;;;;6.48;100.00;102053.18;109310;1245;62513;-72
2023/12/18 08:01:54;;;;;;;39.50;20.70;;;;;;;6.64;100.00;102051.05;109343;1245;63216;-72
2023/12/18 08:04:22;;;;;;;51.30;25.00;;;;;;;6.86;100.00;102050.81;109330;1244;61522;-72
2023/12/18 08:06:53;;;;;;;53.50;23.10;;;;;;;7.00;100.00;102051.01;109379;1244;64555;-73
2023/12/18 08:09:22;;;;;;;43.70;23.60;;;;;;;7.11;100.00;102046.42;109287;1244;71394;-72
2023/12/18 08:11:51;;;;;;;42.30;23.10;;;;;;;7.25;100.00;102043.70;109375;1244;70098;-72
2023/12/18 08:14:20;;;;;;;41.00;23.20;;;;;;;7.45;100.00;102042.24;109228;1244;74111;-73
2023/12/18 08:16:51;;;;;;;47.40;24.10;;;;;;;7.69;100.00;102044.62;109221;1248;57563;-72
2023/12/18 08:19:20;;;;;;;40.00;23.50;;;;;;;7.96;100.00;102044.06;109225;1244;61134;-72
2023/12/18 08:21:49;;;;;;;46.00;22.80;;;;;;;8.25;100.00;102043.58;109274;1244;73179;-72
2023/12/18 08:24:20;;;;;;;47.50;23.70;;;;;;;8.51;100.00;102042.31;109224;1244;72692;-73
2023/12/18 08:26:49;;;;;;;35.90;18.00;;;;;;;8.73;100.00;102037.58;109298;1244;70748;-73
2023/12/18 08:29:17;;;;;;;35.30;17.60;;;;;;;9.02;100.00;102037.66;109312;1245;73333;-73
2023/12/18 08:31:46;;;;;;;38.20;16.50;;;;;;;9.25;100.00;102035.77;109234;1245;57825;-73
2023/12/18 08:34:15;;;;;;;28.90;14.10;;;;;;;9.47;100.00;102032.31;109328;1244;57382;-73
2023/12/18 08:36:44;;;;;;;26.40;15.50;;;;;;;9.61;100.00;102028.16;109427;1244;71492;-73
2023/12/18 08:39:12;;;;;;;26.80;14.50;;;;;;;9.72;100.00;102027.82;109406;1244;72589;-73
2023/12/18 08:41:45;;;;;;;26.40;13.40;;;;;;;9.93;100.00;102024.39;109386;1244;70831;-73
2023/12/18 08:44:14;;;;;;;42.50;15.60;;;;;;;10.06;100.00;102022.84;109490;1243;63553;-71
2023/12/18 08:46:44;;;;;;;29.50;14.00;;;;;;;10.17;100.00;102020.23;109478;1245;57755;-73
2023/12/18 08:49:13;;;;;;;21.80;10.30;;;;;;;10.29;100.00;102019.46;109507;1244;60361;-72
2023/12/18 08:51:43;;;;;;;27.90;11.90;;;;;;;10.36;100.00;102022.08;109518;1244;73906;-72
2023/12/18 08:54:12;;;;;;;17.80;9.60;;;;;;;10.48;100.00;102019.59;109391;1248;61030;-73
2023/12/18 08:56:41;;;;;;;16.90;8.80;;;;;;;10.58;100.00;102021.66;109392;1245;58978;-73
2023/12/18 08:59:11;;;;;;;17.50;10.50;;;;;;;10.69;100.00;102017.98;109464;1244;72943;-73
2023/12/18 09:01:39;;;;;;;15.60;8.90;;;;;;;10.73;100.00;102012.16;109469;1245;60592;-73
2023/12/18 09:04:08;;;;;;;14.10;9.40;;;;;;;10.79;100.00;102013.75;109495;1245;57431;-73
2023/12/18 09:06:37;;;;;;;17.80;9.30;;;;;;;10.82;100.00;102006.98;109486;1245;62966;-73
2023/12/18 09:09:06;;;;;;;15.90;9.60;;;;;;;10.80;100.00;102008.48;109412;1247;61661;-72
2023/12/18 09:11:35;;;;;;;18.10;9.30;;;;;;;10.70;100.00;101999.92;109486;1244;68753;-74
2023/12/18 09:14:04;;;;;;;21.70;9.80;;;;;;;10.83;100.00;102000.80;109433;1247;63585;-73
2023/12/18 09:16:35;;;;;;;18.70;9.50;;;;;;;10.91;100.00;102001.27;109453;1246;57555;-74
2023/12/18 09:19:06;;;;;;;27.80;10.30;;;;;;;11.04;100.00;102003.22;109421;1244;60967;-73
2023/12/18 09:21:35;;;;;;;20.40;9.20;;;;;;;11.05;100.00;101997.22;109417;1244;72645;-73
2023/12/18 09:24:04;;;;;;;19.10;8.00;;;;;;;11.14;100.00;101997.96;109397;1244;72580;-73
2023/12/18 09:26:33;;;;;;;17.60;8.30;;;;;;;11.23;100.00;101994.67;109482;1245;60137;-73
2023/12/18 09:29:02;;;;;;;19.20;8.00;;;;;;;11.35;100.00;101992.08;109434;1245;73835;-73
2023/12/18 09:31:31;;;;;;;17.10;8.40;;;;;;;11.47;100.00;101991.08;109471;1244;61551;-75
2023/12/18 09:34:00;;;;;;;16.40;8.50;;;;;;;11.59;100.00;101987.96;109486;1244;61165;-73
2023/12/18 09:36:29;;;;;;;14.40;7.70;;;;;;;11.70;100.00;101987.15;109440;1244;71267;-74
2023/12/18 09:38:58;;;;;;;9.20;4.50;;;;;;;11.81;100.00;101981.65;109317;1244;72088;-73
2023/12/18 09:41:27;;;;;;;10.30;4.20;;;;;;;12.02;100.00;101981.31;109348;1248;60346;-73
2023/12/18 09:43:56;;;;;;;10.00;3.00;;;;;;;12.21;100.00;101975.48;109395;1244;73811;-73
2023/12/18 09:46:26;;;;;;;5.00;2.40;;;;;;;12.34;100.00;101972.80;109386;1247;61685;-73
2023/12/18 09:48:55;;;;;;;5.60;2.50;;;;;;;12.47;100.00;101969.22;109255;1243;60948;-73
2023/12/18 09:51:25;;;;;;;8.20;3.10;;;;;;;12.60;100.00;101967.77;109313;1244;63264;-74
2023/12/18 09:53:54;;;;;;;9.70;3.30;;;;;;;12.71;100.00;101964.93;109318;1244;71505;-73
2023/12/18 09:56:24;;;;;;;5.70;2.80;;;;;;;12.79;99.39;101956.23;109335;1244;69423;-73
2023/12/18 09:58:56;;;;;;;9.80;3.70;;;;;;;12.85;98.24;101952.08;109244;1248;62916;-72
2023/12/18 10:01:25;;;;;;;7.10;3.10;;;;;;;12.97;100.00;101948.32;109309;1246;61214;-73
2023/12/18 10:03:54;;;;;;;6.00;2.80;;;;;;;13.00;99.91;101943.77;109338;1244;57725;-72
2023/12/18 10:06:23;;;;;;;8.80;3.30;;;;;;;13.06;99.56;101938.31;109490;1248;62928;-73
2023/12/18 10:08:53;;;;;;;6.20;3.30;;;;;;;13.10;99.40;101938.23;109475;1245;61781;-72
2023/12/18 10:11:25;;;;;;;6.20;3.00;;;;;;;13.09;98.64;101930.77;109393;1245;59970;-72
2023/12/18 10:13:56;;;;;;;7.70;2.70;;;;;;;13.07;97.35;101930.57;109327;1244;74302;-73
2023/12/18 10:16:25;;;;;;;8.20;3.00;;;;;;;13.12;95.53;101936.01;109322;1248;61646;-72
2023/12/18 10:18:54;;;;;;;7.90;2.80;;;;;;;13.11;95.46;101928.70;109444;1244;57098;-73
2023/12/18 10:21:24;;;;;;;5.40;3.10;;;;;;;13.12;98.01;101925.35;109499;1244;62915;-72
2023/12/18 10:23:54;;;;;;;6.80;3.00;;;;;;;13.21;97.57;101922.18;109421;1244;62027;-73
2023/12/18 10:26:23;;;;;;;6.90;3.60;;;;;;;13.39;96.64;101922.39;109387;1244;70540;-73
2023/12/18 10:28:52;;;;;;;7.10;3.20;;;;;;;13.60;94.49;101918.23;109387;1247;63428;-74
2023/12/18 10:31:21;;;;;;;6.40;3.60;;;;;;;13.88;94.22;101910.56;109327;1245;61301;-74
2023/12/18 10:33:52;;;;;;;10.30;3.80;;;;;;;14.03;95.45;101912.00;109317;1244;60654;-74
2023/12/18 10:36:23;;;;;;;11.40;3.90;;;;;;;14.32;90.00;101909.30;109341;1244;62692;-74
2023/12/18 10:38:53;;;;;;;9.90;4.10;;;;;;;14.42;91.15;101906.02;109164;1246;61718;-74
2023/12/18 10:41:22;;;;;;;7.80;3.60;;;;;;;14.66;95.26;101900.70;109110;1244;229596;-72
2023/12/18 10:43:52;;;;;;;10.70;3.70;;;;;;;14.95;91.50;101899.10;109330;1245;73387;-74
2023/12/18 10:46:24;;;;;;;7.30;3.20;;;;;;;15.00;92.84;101898.41;109308;1245;57721;-73
2023/12/18 10:48:54;;;;;;;5.70;3.20;;;;;;;15.13;91.26;101895.38;109440;1244;57711;-74
2023/12/18 10:51:24;;;;;;;6.70;3.10;;;;;;;15.36;89.92;101888.39;109460;1244;63402;-74
2023/12/18 10:53:54;;;;;;;6.40;3.20;;;;;;;15.31;89.76;101883.48;109344;1246;72104;-73
2023/12/18 10:56:23;;;;;;;8.70;4.20;;;;;;;15.18;89.70;101875.69;109314;1243;70825;-74
2023/12/18 10:58:56;;;;;;;9.60;4.60;;;;;;;15.01;90.14;101873.45;109451;1244;63730;-74
2023/12/18 11:01:27;;;;;;;6.50;3.90;;;;;;;15.13;88.70;101871.86;109457;1245;57762;-74
2023/12/18 11:03:57;;;;;;;6.70;3.60;;;;;;;15.37;89.55;101869.52;109251;1244;57416;-74
2023/12/18 11:06:28;;;;;;;6.20;3.00;;;;;;;15.53;88.61;101868.20;109429;1245;62959;-74
2023/12/18 11:08:57;;;;;;;6.60;3.60;;;;;;;15.94;82.01;101869.48;109199;1244;72217;-74
2023/12/18 11:11:27;;;;;;;6.10;3.10;;;;;;;15.92;83.62;101865.25;109405;1243;70714;-74
2023/12/18 11:14:16;;;;;;;8.10;3.70;;;;;;;16.23;82.68;101866.52;109271;1243;73296;-74